sensor_id;sensor_type;location;lat;lon;timestamp;temperature;humidity
63317;DHT22;49822;41.468;13.560;2023-02-13T00:00:06;3.30;63.40
63317;DHT22;49822;41.468;13.560;2023-02-13T00:02:34;3.40;63.20
63317;DHT22;49822;41.468;13.560;2023-02-13T00:05:04;3.90;61.30
63317;DHT22;49822;41.468;13.560;2023-02-13T00:07:31;4.20;61.00
63317;DHT22;49822;41.468;13.560;2023-02-13T00:10:00;4.40;60.70
63317;DHT22;49822;41.468;13.560;2023-02-13T00:12:28;4.50;59.00
63317;DHT22;49822;41.468;13.560;2023-02-13T00:14:57;4.00;60.50
63317;DHT22;49822;41.468;13.560;2023-02-13T00:17:26;4.00;60.50
63317;DHT22;49822;41.468;13.560;2023-02-13T00:19:54;4.30;59.90
63317;DHT22;49822;41.468;13.560;2023-02-13T00:22:23;4.50;59.80
63317;DHT22;49822;41.468;13.560;2023-02-13T00:24:51;4.70;59.20
63317;DHT22;49822;41.468;13.560;2023-02-13T00:27:19;4.70;59.00
63317;DHT22;49822;41.468;13.560;2023-02-13T00:29:48;4.70;58.80
63317;DHT22;49822;41.468;13.560;2023-02-13T00:32:16;4.70;59.10
63317;DHT22;49822;41.468;13.560;2023-02-13T00:34:44;4.70;59.20
63317;DHT22;49822;41.468;13.560;2023-02-13T00:37:11;4.50;58.90
63317;DHT22;49822;41.468;13.560;2023-02-13T00:39:40;4.10;60.30
63317;DHT22;49822;41.468;13.560;2023-02-13T00:42:12;3.90;61.20
63317;DHT22;49822;41.468;13.560;2023-02-13T00:44:43;4.10;60.80
63317;DHT22;49822;41.468;13.560;2023-02-13T00:47:11;4.20;60.20
63317;DHT22;49822;41.468;13.560;2023-02-13T00:49:41;4.30;59.90
63317;DHT22;49822;41.468;13.560;2023-02-13T00:52:08;4.00;60.80
63317;DHT22;49822;41.468;13.560;2023-02-13T00:54:36;3.70;61.60
63317;DHT22;49822;41.468;13.560;2023-02-13T00:57:05;3.60;62.80
63317;DHT22;49822;41.468;13.560;2023-02-13T00:59:35;3.70;62.60
63317;DHT22;49822;41.468;13.560;2023-02-13T01:02:03;3.90;62.50
63317;DHT22;49822;41.468;13.560;2023-02-13T01:04:31;4.20;61.90
63317;DHT22;49822;41.468;13.560;2023-02-13T01:06:59;4.30;61.00
63317;DHT22;49822;41.468;13.560;2023-02-13T01:09:28;3.90;60.90
63317;DHT22;49822;41.468;13.560;2023-02-13T01:11:56;3.40;63.00
63317;DHT22;49822;41.468;13.560;2023-02-13T01:14:24;3.50;63.00
63317;DHT22;49822;41.468;13.560;2023-02-13T01:16:52;3.50;62.80
63317;DHT22;49822;41.468;13.560;2023-02-13T01:19:20;3.50;63.30
63317;DHT22;49822;41.468;13.560;2023-02-13T01:21:48;3.50;63.30
63317;DHT22;49822;41.468;13.560;2023-02-13T01:24:18;3.90;62.50
63317;DHT22;49822;41.468;13.560;2023-02-13T01:26:47;4.10;62.30
63317;DHT22;49822;41.468;13.560;2023-02-13T01:29:19;4.10;61.70
63317;DHT22;49822;41.468;13.560;2023-02-13T01:31:48;4.20;61.20
63317;DHT22;49822;41.468;13.560;2023-02-13T01:34:16;3.50;62.30
63317;DHT22;49822;41.468;13.560;2023-02-13T01:36:47;2.90;64.90
63317;DHT22;49822;41.468;13.560;2023-02-13T01:39:14;2.90;66.00
63317;DHT22;49822;41.468;13.560;2023-02-13T01:41:46;3.10;65.50
63317;DHT22;49822;41.468;13.560;2023-02-13T01:47:25;3.60;64.30
63317;DHT22;49822;41.468;13.560;2023-02-13T01:54:05;3.40;63.00
63317;DHT22;49822;41.468;13.560;2023-02-13T01:56:44;3.30;64.70
63317;DHT22;49822;41.468;13.560;2023-02-13T01:59:20;3.30;63.90
63317;DHT22;49822;41.468;13.560;2023-02-13T02:01:49;3.40;63.90
63317;DHT22;49822;41.468;13.560;2023-02-13T02:04:27;3.60;64.00
63317;DHT22;49822;41.468;13.560;2023-02-13T02:07:00;3.70;63.40
63317;DHT22;49822;41.468;13.560;2023-02-13T02:09:35;3.90;62.60
63317;DHT22;49822;41.468;13.560;2023-02-13T02:12:25;3.50;62.70
63317;DHT22;49822;41.468;13.560;2023-02-13T02:14:55;3.50;63.70
63317;DHT22;49822;41.468;13.560;2023-02-13T02:17:27;3.50;63.70
63317;DHT22;49822;41.468;13.560;2023-02-13T02:20:20;3.50;63.30
63317;DHT22;49822;41.468;13.560;2023-02-13T02:32:02;2.50;66.10
63317;DHT22;49822;41.468;13.560;2023-02-13T02:34:52;2.50;67.10
63317;DHT22;49822;41.468;13.560;2023-02-13T02:45:48;2.40;66.20
63317;DHT22;49822;41.468;13.560;2023-02-13T02:48:26;2.10;67.30
63317;DHT22;49822;41.468;13.560;2023-02-13T02:51:47;2.20;67.20
63317;DHT22;49822;41.468;13.560;2023-02-13T02:54:31;1.60;67.20
63317;DHT22;49822;41.468;13.560;2023-02-13T02:57:29;1.40;69.20
63317;DHT22;49822;41.468;13.560;2023-02-13T03:00:22;1.40;70.90
63317;DHT22;49822;41.468;13.560;2023-02-13T03:03:22;1.50;69.90
63317;DHT22;49822;41.468;13.560;2023-02-13T03:06:24;1.10;70.70
63317;DHT22;49822;41.468;13.560;2023-02-13T03:08:56;1.30;72.00
63317;DHT22;49822;41.468;13.560;2023-02-13T03:11:48;1.60;71.60
63317;DHT22;49822;41.468;13.560;2023-02-13T03:14:35;1.90;70.70
63317;DHT22;49822;41.468;13.560;2023-02-13T03:17:05;2.20;69.40
63317;DHT22;49822;41.468;13.560;2023-02-13T03:23:11;2.50;66.90
63317;DHT22;49822;41.468;13.560;2023-02-13T03:35:03;2.50;67.50
63317;DHT22;49822;41.468;13.560;2023-02-13T03:37:59;2.50;67.50
63317;DHT22;49822;41.468;13.560;2023-02-13T03:40:59;2.50;67.20
63317;DHT22;49822;41.468;13.560;2023-02-13T03:44:03;2.60;67.00
63317;DHT22;49822;41.468;13.560;2023-02-13T03:46:35;2.50;66.20
63317;DHT22;49822;41.468;13.560;2023-02-13T03:49:09;2.20;67.20
63317;DHT22;49822;41.468;13.560;2023-02-13T03:52:00;1.80;68.40
63317;DHT22;49822;41.468;13.560;2023-02-13T03:54:33;1.40;71.50
63317;DHT22;49822;41.468;13.560;2023-02-13T03:57:23;1.60;72.10
63317;DHT22;49822;41.468;13.560;2023-02-13T04:00:13;1.80;70.70
63317;DHT22;49822;41.468;13.560;2023-02-13T04:03:15;1.50;70.70
63317;DHT22;49822;41.468;13.560;2023-02-13T04:05:57;1.00;71.00
63317;DHT22;49822;41.468;13.560;2023-02-13T04:08:30;1.00;72.50
63317;DHT22;49822;41.468;13.560;2023-02-13T04:11:20;1.00;73.50
63317;DHT22;49822;41.468;13.560;2023-02-13T04:13:57;1.30;74.00
63317;DHT22;49822;41.468;13.560;2023-02-13T04:16:41;1.60;72.40
63317;DHT22;49822;41.468;13.560;2023-02-13T04:19:09;1.80;70.00
63317;DHT22;49822;41.468;13.560;2023-02-13T04:21:39;2.00;69.90
63317;DHT22;49822;41.468;13.560;2023-02-13T04:24:07;1.90;68.30
63317;DHT22;49822;41.468;13.560;2023-02-13T04:26:38;0.90;72.10
63317;DHT22;49822;41.468;13.560;2023-02-13T04:29:08;0.60;74.60
63317;DHT22;49822;41.468;13.560;2023-02-13T04:31:37;1.00;75.50
63317;DHT22;49822;41.468;13.560;2023-02-13T04:34:06;1.40;74.10
63317;DHT22;49822;41.468;13.560;2023-02-13T04:36:35;1.60;71.80
63317;DHT22;49822;41.468;13.560;2023-02-13T04:39:02;1.80;71.70
63317;DHT22;49822;41.468;13.560;2023-02-13T04:41:31;1.90;70.50
63317;DHT22;49822;41.468;13.560;2023-02-13T04:43:58;2.00;69.90
63317;DHT22;49822;41.468;13.560;2023-02-13T04:46:26;2.00;70.80
63317;DHT22;49822;41.468;13.560;2023-02-13T04:48:54;2.10;71.60
63317;DHT22;49822;41.468;13.560;2023-02-13T04:51:22;2.30;71.20
63317;DHT22;49822;41.468;13.560;2023-02-13T04:53:49;2.50;70.60
63317;DHT22;49822;41.468;13.560;2023-02-13T04:56:17;2.60;69.00
63317;DHT22;49822;41.468;13.560;2023-02-13T04:58:46;2.30;69.00
63317;DHT22;49822;41.468;13.560;2023-02-13T05:01:15;2.40;69.20
63317;DHT22;49822;41.468;13.560;2023-02-13T05:03:43;2.30;68.70
63317;DHT22;49822;41.468;13.560;2023-02-13T05:06:11;2.00;68.90
63317;DHT22;49822;41.468;13.560;2023-02-13T05:08:39;1.90;69.60
63317;DHT22;49822;41.468;13.560;2023-02-13T05:11:06;1.90;69.40
63317;DHT22;49822;41.468;13.560;2023-02-13T05:13:35;2.00;69.60
63317;DHT22;49822;41.468;13.560;2023-02-13T05:16:02;2.00;69.00
63317;DHT22;49822;41.468;13.560;2023-02-13T05:18:30;1.50;68.30
63317;DHT22;49822;41.468;13.560;2023-02-13T05:20:57;1.20;71.00
63317;DHT22;49822;41.468;13.560;2023-02-13T05:23:43;1.40;71.50
63317;DHT22;49822;41.468;13.560;2023-02-13T05:26:11;1.40;71.80
63317;DHT22;49822;41.468;13.560;2023-02-13T05:28:38;1.40;71.40
63317;DHT22;49822;41.468;13.560;2023-02-13T05:31:25;1.40;73.20
63317;DHT22;49822;41.468;13.560;2023-02-13T05:33:53;1.40;72.20
63317;DHT22;49822;41.468;13.560;2023-02-13T05:36:21;0.90;71.80
63317;DHT22;49822;41.468;13.560;2023-02-13T05:38:49;0.60;75.30
63317;DHT22;49822;41.468;13.560;2023-02-13T05:41:18;0.80;76.00
63317;DHT22;49822;41.468;13.560;2023-02-13T05:43:45;1.00;75.30
63317;DHT22;49822;41.468;13.560;2023-02-13T05:46:13;1.00;74.20
63317;DHT22;49822;41.468;13.560;2023-02-13T05:48:41;1.20;75.00
63317;DHT22;49822;41.468;13.560;2023-02-13T05:51:09;1.50;73.70
63317;DHT22;49822;41.468;13.560;2023-02-13T05:53:37;1.60;73.00
63317;DHT22;49822;41.468;13.560;2023-02-13T05:56:05;1.70;72.10
63317;DHT22;49822;41.468;13.560;2023-02-13T05:58:33;1.80;71.10
63317;DHT22;49822;41.468;13.560;2023-02-13T06:01:01;1.90;70.80
63317;DHT22;49822;41.468;13.560;2023-02-13T06:03:30;1.60;71.50
63317;DHT22;49822;41.468;13.560;2023-02-13T06:05:58;1.50;71.10
63317;DHT22;49822;41.468;13.560;2023-02-13T06:08:26;1.30;72.00
63317;DHT22;49822;41.468;13.560;2023-02-13T06:10:54;1.20;72.70
63317;DHT22;49822;41.468;13.560;2023-02-13T06:13:21;1.00;71.40
63317;DHT22;49822;41.468;13.560;2023-02-13T06:15:51;0.40;73.30
63317;DHT22;49822;41.468;13.560;2023-02-13T06:18:21;0.20;76.90
63317;DHT22;49822;41.468;13.560;2023-02-13T06:20:48;0.60;78.90
63317;DHT22;49822;41.468;13.560;2023-02-13T06:23:19;1.10;77.90
63317;DHT22;49822;41.468;13.560;2023-02-13T06:25:46;1.40;75.60
63317;DHT22;49822;41.468;13.560;2023-02-13T06:28:14;1.40;73.20
63317;DHT22;49822;41.468;13.560;2023-02-13T06:30:42;1.60;73.00
63317;DHT22;49822;41.468;13.560;2023-02-13T06:33:10;1.60;71.40
63317;DHT22;49822;41.468;13.560;2023-02-13T06:35:38;1.20;72.90
63317;DHT22;49822;41.468;13.560;2023-02-13T06:38:05;1.20;74.30
63317;DHT22;49822;41.468;13.560;2023-02-13T06:40:33;1.40;74.30
63317;DHT22;49822;41.468;13.560;2023-02-13T06:43:01;1.50;72.80
63317;DHT22;49822;41.468;13.560;2023-02-13T06:45:28;1.60;72.10
63317;DHT22;49822;41.468;13.560;2023-02-13T06:47:56;1.80;71.40
63317;DHT22;49822;41.468;13.560;2023-02-13T06:50:23;1.90;71.70
63317;DHT22;49822;41.468;13.560;2023-02-13T06:52:51;2.20;70.90
63317;DHT22;49822;41.468;13.560;2023-02-13T06:55:19;2.30;70.60
63317;DHT22;49822;41.468;13.560;2023-02-13T06:57:47;2.50;69.60
63317;DHT22;49822;41.468;13.560;2023-02-13T07:03:47;2.50;68.60
63317;DHT22;49822;41.468;13.560;2023-02-13T07:06:19;2.80;68.50
63317;DHT22;49822;41.468;13.560;2023-02-13T07:08:48;3.00;68.10
63317;DHT22;49822;41.468;13.560;2023-02-13T07:11:23;3.10;67.90
63317;DHT22;49822;41.468;13.560;2023-02-13T07:13:51;3.30;67.40
63317;DHT22;49822;41.468;13.560;2023-02-13T07:16:18;3.60;66.50
63317;DHT22;49822;41.468;13.560;2023-02-13T07:18:47;3.80;65.80
63317;DHT22;49822;41.468;13.560;2023-02-13T07:21:14;3.80;65.30
63317;DHT22;49822;41.468;13.560;2023-02-13T07:23:45;3.90;65.80
63317;DHT22;49822;41.468;13.560;2023-02-13T07:26:12;4.00;65.70
63317;DHT22;49822;41.468;13.560;2023-02-13T07:32:15;3.90;67.20
63317;DHT22;49822;41.468;13.560;2023-02-13T07:34:42;4.00;67.00
63317;DHT22;49822;41.468;13.560;2023-02-13T07:37:28;4.10;67.70
63317;DHT22;49822;41.468;13.560;2023-02-13T07:39:56;4.20;66.10
63317;DHT22;49822;41.468;13.560;2023-02-13T07:42:24;4.30;64.80
63317;DHT22;49822;41.468;13.560;2023-02-13T07:44:52;4.30;64.20
63317;DHT22;49822;41.468;13.560;2023-02-13T07:47:20;4.30;64.90
63317;DHT22;49822;41.468;13.560;2023-02-13T07:49:47;4.40;65.30
63317;DHT22;49822;41.468;13.560;2023-02-13T07:52:15;4.60;65.10
63317;DHT22;49822;41.468;13.560;2023-02-13T07:54:43;4.80;64.40
63317;DHT22;49822;41.468;13.560;2023-02-13T07:57:15;5.00;64.20
63317;DHT22;49822;41.468;13.560;2023-02-13T07:59:42;5.00;65.00
63317;DHT22;49822;41.468;13.560;2023-02-13T08:02:12;5.10;65.50
63317;DHT22;49822;41.468;13.560;2023-02-13T08:04:41;5.30;66.40
63317;DHT22;49822;41.468;13.560;2023-02-13T08:07:16;5.50;66.30
63317;DHT22;49822;41.468;13.560;2023-02-13T08:09:45;5.80;65.30
63317;DHT22;49822;41.468;13.560;2023-02-13T08:12:34;6.00;65.40
63317;DHT22;49822;41.468;13.560;2023-02-13T08:15:04;6.20;65.50
63317;DHT22;49822;41.468;13.560;2023-02-13T08:17:34;6.40;63.40
63317;DHT22;49822;41.468;13.560;2023-02-13T08:20:08;6.60;63.20
63317;DHT22;49822;41.468;13.560;2023-02-13T08:22:39;6.80;63.10
63317;DHT22;49822;41.468;13.560;2023-02-13T08:25:09;7.00;62.40
63317;DHT22;49822;41.468;13.560;2023-02-13T08:27:38;7.00;61.00
63317;DHT22;49822;41.468;13.560;2023-02-13T08:30:07;7.20;59.40
63317;DHT22;49822;41.468;13.560;2023-02-13T08:32:36;7.20;59.20
63317;DHT22;49822;41.468;13.560;2023-02-13T08:35:20;7.40;59.80
63317;DHT22;49822;41.468;13.560;2023-02-13T08:37:49;7.50;60.20
63317;DHT22;49822;41.468;13.560;2023-02-13T08:40:17;7.60;60.20
63317;DHT22;49822;41.468;13.560;2023-02-13T08:42:44;7.80;59.10
63317;DHT22;49822;41.468;13.560;2023-02-13T08:45:13;7.80;59.30
63317;DHT22;49822;41.468;13.560;2023-02-13T08:47:40;7.90;59.00
63317;DHT22;49822;41.468;13.560;2023-02-13T08:50:09;8.00;58.40
63317;DHT22;49822;41.468;13.560;2023-02-13T08:52:37;8.00;57.90
63317;DHT22;49822;41.468;13.560;2023-02-13T08:55:06;8.10;57.90
63317;DHT22;49822;41.468;13.560;2023-02-13T08:57:36;8.20;57.90
63317;DHT22;49822;41.468;13.560;2023-02-13T09:00:06;8.20;58.00
63317;DHT22;49822;41.468;13.560;2023-02-13T09:02:36;8.30;57.70
63317;DHT22;49822;41.468;13.560;2023-02-13T09:05:05;8.50;57.90
63317;DHT22;49822;41.468;13.560;2023-02-13T09:07:35;8.60;56.10
63317;DHT22;49822;41.468;13.560;2023-02-13T09:10:03;8.80;55.70
63317;DHT22;49822;41.468;13.560;2023-02-13T09:12:35;8.90;55.90
63317;DHT22;49822;41.468;13.560;2023-02-13T09:15:18;9.00;54.80
63317;DHT22;49822;41.468;13.560;2023-02-13T09:18:06;9.10;52.30
63317;DHT22;49822;41.468;13.560;2023-02-13T09:20:34;9.30;53.20
63317;DHT22;49822;41.468;13.560;2023-02-13T09:23:02;9.40;52.70
63317;DHT22;49822;41.468;13.560;2023-02-13T09:25:30;9.40;52.00
63317;DHT22;49822;41.468;13.560;2023-02-13T09:27:58;9.50;52.70
63317;DHT22;49822;41.468;13.560;2023-02-13T09:30:27;9.60;52.30
63317;DHT22;49822;41.468;13.560;2023-02-13T09:32:58;9.70;51.20
63317;DHT22;49822;41.468;13.560;2023-02-13T09:35:26;9.80;51.20
63317;DHT22;49822;41.468;13.560;2023-02-13T09:37:55;10.00;50.50
63317;DHT22;49822;41.468;13.560;2023-02-13T09:40:34;10.20;50.30
63317;DHT22;49822;41.468;13.560;2023-02-13T09:43:06;10.50;50.10
63317;DHT22;49822;41.468;13.560;2023-02-13T09:45:38;10.60;49.40
63317;DHT22;49822;41.468;13.560;2023-02-13T09:48:17;10.80;49.80
63317;DHT22;49822;41.468;13.560;2023-02-13T09:50:44;11.00;47.90
63317;DHT22;49822;41.468;13.560;2023-02-13T09:53:19;11.30;46.60
63317;DHT22;49822;41.468;13.560;2023-02-13T09:56:05;11.50;46.20
63317;DHT22;49822;41.468;13.560;2023-02-13T09:58:48;11.50;46.70
63317;DHT22;49822;41.468;13.560;2023-02-13T10:01:39;11.80;45.40
63317;DHT22;49822;41.468;13.560;2023-02-13T10:04:20;12.00;45.80
63317;DHT22;49822;41.468;13.560;2023-02-13T10:06:59;12.20;45.20
63317;DHT22;49822;41.468;13.560;2023-02-13T10:09:44;12.50;43.80
63317;DHT22;49822;41.468;13.560;2023-02-13T10:12:27;12.60;41.60
63317;DHT22;49822;41.468;13.560;2023-02-13T10:15:16;12.80;41.50
63317;DHT22;49822;41.468;13.560;2023-02-13T10:17:55;12.80;41.50
63317;DHT22;49822;41.468;13.560;2023-02-13T10:20:34;13.10;42.00
63317;DHT22;49822;41.468;13.560;2023-02-13T10:23:21;13.00;39.80
63317;DHT22;49822;41.468;13.560;2023-02-13T10:26:01;13.10;41.50
63317;DHT22;49822;41.468;13.560;2023-02-13T10:31:51;13.50;41.10
63317;DHT22;49822;41.468;13.560;2023-02-13T10:34:24;13.20;40.40
63317;DHT22;49822;41.468;13.560;2023-02-13T10:36:54;13.20;39.20
63317;DHT22;49822;41.468;13.560;2023-02-13T10:39:28;13.30;38.70
63317;DHT22;49822;41.468;13.560;2023-02-13T11:01:25;18.50;31.90
63317;DHT22;49822;41.468;13.560;2023-02-13T11:04:10;18.30;32.70
63317;DHT22;49822;41.468;13.560;2023-02-13T11:06:58;18.00;31.20
63317;DHT22;49822;41.468;13.560;2023-02-13T11:09:27;17.40;31.60
63317;DHT22;49822;41.468;13.560;2023-02-13T11:11:54;17.20;32.30
63317;DHT22;49822;41.468;13.560;2023-02-13T11:14:29;17.10;33.40
63317;DHT22;49822;41.468;13.560;2023-02-13T11:17:33;17.00;31.70
63317;DHT22;49822;41.468;13.560;2023-02-13T11:20:38;15.60;33.10
63317;DHT22;49822;41.468;13.560;2023-02-13T11:26:06;15.00;34.90
63317;DHT22;49822;41.468;13.560;2023-02-13T11:28:43;15.00;34.10
63317;DHT22;49822;41.468;13.560;2023-02-13T11:31:32;15.10;34.00
63317;DHT22;49822;41.468;13.560;2023-02-13T11:37:17;15.60;33.90
63317;DHT22;49822;41.468;13.560;2023-02-13T11:39:46;15.40;33.00
63317;DHT22;49822;41.468;13.560;2023-02-13T11:42:35;14.70;33.70
63317;DHT22;49822;41.468;13.560;2023-02-13T11:45:20;14.70;33.60
63317;DHT22;49822;41.468;13.560;2023-02-13T11:47:49;14.90;34.00
63317;DHT22;49822;41.468;13.560;2023-02-13T11:50:32;15.00;33.60
63317;DHT22;49822;41.468;13.560;2023-02-13T11:55:35;15.00;32.60
63317;DHT22;49822;41.468;13.560;2023-02-13T12:00:40;14.60;33.30
63317;DHT22;49822;41.468;13.560;2023-02-13T12:03:30;14.80;33.70
63317;DHT22;49822;41.468;13.560;2023-02-13T12:06:14;15.40;32.10
63317;DHT22;49822;41.468;13.560;2023-02-13T12:08:45;15.70;32.20
63317;DHT22;49822;41.468;13.560;2023-02-13T12:11:37;15.30;32.10
63317;DHT22;49822;41.468;13.560;2023-02-13T12:14:10;15.30;33.00
63317;DHT22;49822;41.468;13.560;2023-02-13T12:16:46;15.40;33.10
63317;DHT22;49822;41.468;13.560;2023-02-13T12:19:21;15.10;31.90
63317;DHT22;49822;41.468;13.560;2023-02-13T12:27:28;15.00;33.00
63317;DHT22;49822;41.468;13.560;2023-02-13T12:35:29;14.40;32.70
63317;DHT22;49822;41.468;13.560;2023-02-13T12:38:06;14.30;33.50
63317;DHT22;49822;41.468;13.560;2023-02-13T12:43:48;15.40;33.10
63317;DHT22;49822;41.468;13.560;2023-02-13T13:00:17;17.00;30.90
63317;DHT22;49822;41.468;13.560;2023-02-13T13:09:20;17.30;31.70
63317;DHT22;49822;41.468;13.560;2023-02-13T13:15:19;17.00;31.20
63317;DHT22;49822;41.468;13.560;2023-02-13T13:23:52;16.00;31.10
63317;DHT22;49822;41.468;13.560;2023-02-13T13:26:39;16.10;32.00
63317;DHT22;49822;41.468;13.560;2023-02-13T13:29:20;16.20;32.70
63317;DHT22;49822;41.468;13.560;2023-02-13T13:31:58;16.10;31.80
63317;DHT22;49822;41.468;13.560;2023-02-13T13:34:27;16.50;33.10
63317;DHT22;49822;41.468;13.560;2023-02-13T13:37:45;16.50;32.00
63317;DHT22;49822;41.468;13.560;2023-02-13T13:42:53;17.40;32.20
63317;DHT22;49822;41.468;13.560;2023-02-13T13:48:18;16.70;32.40
63317;DHT22;49822;41.468;13.560;2023-02-13T13:50:48;16.70;33.80
63317;DHT22;49822;41.468;13.560;2023-02-13T13:53:19;17.20;33.00
63317;DHT22;49822;41.468;13.560;2023-02-13T14:01:28;18.30;32.00
63317;DHT22;49822;41.468;13.560;2023-02-13T14:04:00;17.80;31.70
63317;DHT22;49822;41.468;13.560;2023-02-13T14:09:40;17.50;32.60
63317;DHT22;49822;41.468;13.560;2023-02-13T14:14:58;17.40;31.50
63317;DHT22;49822;41.468;13.560;2023-02-13T14:20:32;16.40;33.00
63317;DHT22;49822;41.468;13.560;2023-02-13T14:31:21;16.60;32.90
63317;DHT22;49822;41.468;13.560;2023-02-13T14:36:44;17.70;32.90
63317;DHT22;49822;41.468;13.560;2023-02-13T14:39:31;18.20;32.40
63317;DHT22;49822;41.468;13.560;2023-02-13T14:42:22;18.60;32.60
63317;DHT22;49822;41.468;13.560;2023-02-13T14:44:59;18.70;31.20
63317;DHT22;49822;41.468;13.560;2023-02-13T14:47:39;18.70;30.50
63317;DHT22;49822;41.468;13.560;2023-02-13T14:50:42;17.90;31.50
63317;DHT22;49822;41.468;13.560;2023-02-13T14:53:23;18.20;31.80
63317;DHT22;49822;41.468;13.560;2023-02-13T14:56:00;19.20;31.10
63317;DHT22;49822;41.468;13.560;2023-02-13T14:58:31;18.80;30.50
63317;DHT22;49822;41.468;13.560;2023-02-13T15:01:16;18.20;32.00
63317;DHT22;49822;41.468;13.560;2023-02-13T15:03:47;18.60;31.10
63317;DHT22;49822;41.468;13.560;2023-02-13T15:06:27;19.40;30.50
63317;DHT22;49822;41.468;13.560;2023-02-13T15:09:04;20.60;28.70
63317;DHT22;49822;41.468;13.560;2023-02-13T15:11:36;20.70;28.90
63317;DHT22;49822;41.468;13.560;2023-02-13T15:16:49;22.50;26.80
63317;DHT22;49822;41.468;13.560;2023-02-13T15:19:19;21.80;27.10
63317;DHT22;49822;41.468;13.560;2023-02-13T15:21:54;21.30;28.20
63317;DHT22;49822;41.468;13.560;2023-02-13T15:24:23;21.50;29.00
63317;DHT22;49822;41.468;13.560;2023-02-13T15:27:00;21.30;29.10
63317;DHT22;49822;41.468;13.560;2023-02-13T15:29:29;20.30;31.20
63317;DHT22;49822;41.468;13.560;2023-02-13T15:32:20;20.40;30.00
63317;DHT22;49822;41.468;13.560;2023-02-13T15:34:52;18.50;30.90
63317;DHT22;49822;41.468;13.560;2023-02-13T15:37:26;16.90;33.20
63317;DHT22;49822;41.468;13.560;2023-02-13T15:39:54;16.10;35.20
63317;DHT22;49822;41.468;13.560;2023-02-13T15:42:22;15.30;37.10
63317;DHT22;49822;41.468;13.560;2023-02-13T15:44:53;13.90;38.80
63317;DHT22;49822;41.468;13.560;2023-02-13T15:47:29;13.20;40.30
63317;DHT22;49822;41.468;13.560;2023-02-13T15:49:59;12.40;41.60
63317;DHT22;49822;41.468;13.560;2023-02-13T15:52:32;12.30;41.50
63317;DHT22;49822;41.468;13.560;2023-02-13T15:55:00;12.60;41.40
63317;DHT22;49822;41.468;13.560;2023-02-13T15:57:30;12.70;42.20
63317;DHT22;49822;41.468;13.560;2023-02-13T15:59:59;12.60;42.00
63317;DHT22;49822;41.468;13.560;2023-02-13T16:02:42;12.30;43.20
63317;DHT22;49822;41.468;13.560;2023-02-13T16:05:13;12.00;43.90
63317;DHT22;49822;41.468;13.560;2023-02-13T16:07:58;11.90;44.00
63317;DHT22;49822;41.468;13.560;2023-02-13T16:10:34;11.80;44.80
63317;DHT22;49822;41.468;13.560;2023-02-13T16:13:05;11.70;44.20
63317;DHT22;49822;41.468;13.560;2023-02-13T16:15:35;11.60;44.60
63317;DHT22;49822;41.468;13.560;2023-02-13T16:18:17;11.50;44.80
63317;DHT22;49822;41.468;13.560;2023-02-13T16:20:52;11.50;45.20
63317;DHT22;49822;41.468;13.560;2023-02-13T16:23:21;11.50;45.40
63317;DHT22;49822;41.468;13.560;2023-02-13T16:25:49;11.50;45.20
63317;DHT22;49822;41.468;13.560;2023-02-13T16:28:19;11.40;45.80
63317;DHT22;49822;41.468;13.560;2023-02-13T16:30:58;11.40;46.10
63317;DHT22;49822;41.468;13.560;2023-02-13T16:33:35;11.30;46.50
63317;DHT22;49822;41.468;13.560;2023-02-13T16:38:40;11.40;46.70
63317;DHT22;49822;41.468;13.560;2023-02-13T16:44:01;11.10;48.00
63317;DHT22;49822;41.468;13.560;2023-02-13T16:46:42;11.00;48.40
63317;DHT22;49822;41.468;13.560;2023-02-13T16:49:21;11.00;48.60
63317;DHT22;49822;41.468;13.560;2023-02-13T16:51:57;11.00;48.70
63317;DHT22;49822;41.468;13.560;2023-02-13T16:57:48;10.80;49.30
63317;DHT22;49822;41.468;13.560;2023-02-13T17:00:21;10.70;49.60
63317;DHT22;49822;41.468;13.560;2023-02-13T17:02:52;10.70;49.80
63317;DHT22;49822;41.468;13.560;2023-02-13T17:05:26;10.70;50.20
63317;DHT22;49822;41.468;13.560;2023-02-13T17:07:55;10.60;50.20
63317;DHT22;49822;41.468;13.560;2023-02-13T17:10:32;10.60;50.20
63317;DHT22;49822;41.468;13.560;2023-02-13T17:13:11;10.60;50.40
63317;DHT22;49822;41.468;13.560;2023-02-13T17:15:42;10.50;50.50
63317;DHT22;49822;41.468;13.560;2023-02-13T17:18:11;10.50;50.50
63317;DHT22;49822;41.468;13.560;2023-02-13T17:20:43;10.50;50.50
63317;DHT22;49822;41.468;13.560;2023-02-13T17:23:19;10.50;50.00
63317;DHT22;49822;41.468;13.560;2023-02-13T17:25:49;10.60;49.70
63317;DHT22;49822;41.468;13.560;2023-02-13T17:28:24;10.70;50.00
63317;DHT22;49822;41.468;13.560;2023-02-13T17:30:55;10.70;49.80
63317;DHT22;49822;41.468;13.560;2023-02-13T17:33:26;10.60;50.50
63317;DHT22;49822;41.468;13.560;2023-02-13T17:35:54;10.60;50.70
63317;DHT22;49822;41.468;13.560;2023-02-13T17:38:22;10.70;49.90
63317;DHT22;49822;41.468;13.560;2023-02-13T17:40:50;10.70;50.40
63317;DHT22;49822;41.468;13.560;2023-02-13T17:43:19;10.70;50.60
63317;DHT22;49822;41.468;13.560;2023-02-13T17:45:48;10.70;50.60
63317;DHT22;49822;41.468;13.560;2023-02-13T17:48:16;10.70;50.50
63317;DHT22;49822;41.468;13.560;2023-02-13T17:50:44;10.80;51.40
63317;DHT22;49822;41.468;13.560;2023-02-13T17:53:32;10.80;50.70
63317;DHT22;49822;41.468;13.560;2023-02-13T17:56:00;10.60;50.70
63317;DHT22;49822;41.468;13.560;2023-02-13T17:58:28;10.10;52.00
63317;DHT22;49822;41.468;13.560;2023-02-13T18:00:55;10.00;52.70
63317;DHT22;49822;41.468;13.560;2023-02-13T18:03:23;10.00;53.00
63317;DHT22;49822;41.468;13.560;2023-02-13T18:05:51;10.10;52.20
63317;DHT22;49822;41.468;13.560;2023-02-13T18:08:18;10.10;52.90
63317;DHT22;49822;41.468;13.560;2023-02-13T18:10:47;10.00;52.20
63317;DHT22;49822;41.468;13.560;2023-02-13T18:13:14;9.60;53.00
63317;DHT22;49822;41.468;13.560;2023-02-13T18:15:44;9.40;53.30
63317;DHT22;49822;41.468;13.560;2023-02-13T18:18:13;8.90;54.60
63317;DHT22;49822;41.468;13.560;2023-02-13T18:20:43;8.60;56.40
63317;DHT22;49822;41.468;13.560;2023-02-13T18:23:13;8.60;55.70
63317;DHT22;49822;41.468;13.560;2023-02-13T18:25:41;8.40;56.40
63317;DHT22;49822;41.468;13.560;2023-02-13T18:28:13;8.30;56.70
63317;DHT22;49822;41.468;13.560;2023-02-13T18:30:42;8.10;57.40
63317;DHT22;49822;41.468;13.560;2023-02-13T18:33:10;8.30;57.80
63317;DHT22;49822;41.468;13.560;2023-02-13T18:35:37;8.50;57.30
63317;DHT22;49822;41.468;13.560;2023-02-13T18:38:06;8.80;56.80
63317;DHT22;49822;41.468;13.560;2023-02-13T18:40:34;8.90;55.60
63317;DHT22;49822;41.468;13.560;2023-02-13T18:43:03;8.40;56.40
63317;DHT22;49822;41.468;13.560;2023-02-13T18:45:31;8.20;57.30
63317;DHT22;49822;41.468;13.560;2023-02-13T18:47:59;7.90;57.90